Terminal Aerodrome Forecast
Issued by NWS Columbia, SC

Home | Current Version | Previous Version | Text Only | Print | Product List | Glossary On
Versions: 1 2 3 4 5 6 7 8 9 10 11 12 13 14 15 16 17 18 19 20 21 22 23 24 25 26 27 28 29 30 31 32 33 34 35
517
FTUS42 KCAE 222339
TAFCAE
TAF
KCAE 222339Z 2300/2324 19007KT P6SM VCSH SCT045 BKN080 BKN150
     FM230700 VRB03KT P6SM BKN015
     FM230900 VRB03KT 6SM BR OVC007
     FM231400 22006KT P6SM BKN010
     FM231600 22006KT P6SM VCSH SCT025 BKN050=

USA.gov is the U.S. government's official web portal to all federal, state and local government web resources and services.